Карточка аэропорта UAKK

Внимание!
Информация на этой странице в стадии наполнения.
Если вы не увидели какой-то информации, или заметили неточность - пожалуйста сообщите нам!
Спасибо!
Команда RU-STAFF
Название аэропортаКараганда
Название аэропорта (англ.)Karaganda
Превышение1768 ft. (538.9 m.)
Координаты49°40.302', 73°20.118'
Высота перехода10000ft
Эшелон переходаFL120, QNH<733:FL130
Коды ответчика0630-0637, 7220-7227
Зона ОрВДАстана РПИ (UACN)
Данные METARUAKK 211900Z VRB01MPS CAVOK 15/14 Q1008 NOSIG RMK QFE710/0946
Проноз погоды (TAF)UAKK 211701Z 2118/2218 VRB02MPS 3100 BR SCT011 BKN040 TX27/2209Z TN12/2201Z TEMPO 2118/2202 0500 FG VV002 FM220300 29005MPS 9999 SCT040 BKN100 TEMPO 2203/2214 35005MPS SCT030CB BECMG 2214/2216 10005MPS
NOTAMshow/hide NOTAM
AWOS   TABLE

Информация о ВПП

ВПП Длина ВПП (м.) Покрытие Курс ВПП Частота ILS
053601Железобетон50109.9
233601Железобетон230111.7

Диспетчерские позиции




Спутниковое изображение